createdAt,value
2017-03-28T00:00:21.481Z,0
2017-03-28T00:01:01.907Z,0
2017-03-28T00:01:42.294Z,0
2017-03-28T00:02:22.695Z,0
2017-03-28T00:03:03.075Z,0
2017-03-28T00:03:43.500Z,0
2017-03-28T00:04:23.875Z,0
2017-03-28T00:05:04.228Z,0
2017-03-28T00:05:44.715Z,0
2017-03-28T00:06:25.167Z,0
2017-03-28T00:07:05.495Z,0
2017-03-28T00:07:45.903Z,0
2017-03-28T00:08:26.294Z,0
2017-03-28T00:09:06.708Z,0
2017-03-28T00:09:47.102Z,0
2017-03-28T00:10:27.494Z,0
2017-03-28T00:11:07.899Z,0
2017-03-28T00:11:48.259Z,0
2017-03-28T00:12:28.681Z,0
2017-03-28T00:13:09.047Z,0
2017-03-28T00:13:49.485Z,0
2017-03-28T00:14:29.921Z,0
2017-03-28T00:15:10.278Z,0
2017-03-28T00:15:50.719Z,0
2017-03-28T00:16:31.051Z,0
2017-03-28T00:17:11.522Z,0
2017-03-28T00:17:51.961Z,0
2017-03-28T00:18:32.466Z,0
2017-03-28T00:19:12.819Z,0
2017-03-28T00:19:53.298Z,0
2017-03-28T00:20:33.695Z,0
2017-03-28T00:21:14.057Z,0
2017-03-28T00:21:54.517Z,0
2017-03-28T00:22:34.896Z,0
2017-03-28T00:23:15.326Z,0
2017-03-28T00:23:55.682Z,0
2017-03-28T00:24:36.072Z,0
2017-03-28T00:25:16.495Z,0
2017-03-28T00:25:56.854Z,0
2017-03-28T00:26:37.315Z,0
2017-03-28T00:27:17.689Z,0
2017-03-28T00:27:58.085Z,0
2017-03-28T00:28:38.472Z,0
2017-03-28T00:29:19.055Z,0
2017-03-28T00:30:00.022Z,0
2017-03-28T00:30:40.778Z,0
2017-03-28T00:31:21.367Z,0
2017-03-28T00:32:02.893Z,0
2017-03-28T00:34:08.743Z,0
2017-03-28T00:34:57.097Z,0
2017-03-28T00:35:45.593Z,0
2017-03-28T00:36:34.005Z,0
2017-03-28T00:37:22.443Z,0
2017-03-28T00:38:11.696Z,0
2017-03-28T00:38:59.923Z,0
2017-03-28T00:39:48.271Z,0
2017-03-28T00:40:37.217Z,0
2017-03-28T00:41:25.722Z,0
2017-03-28T00:42:14.598Z,0
2017-03-28T00:43:02.935Z,0
2017-03-28T00:43:51.692Z,0
2017-03-28T00:44:39.987Z,0
2017-03-28T00:45:28.767Z,0
2017-03-28T00:46:17.747Z,0
2017-03-28T00:47:06.275Z,0
2017-03-28T00:47:54.234Z,0
2017-03-28T00:48:43.361Z,0
2017-03-28T00:49:31.723Z,0
2017-03-28T00:50:20.665Z,0
2017-03-28T00:51:08.846Z,0
2017-03-28T00:51:56.217Z,0
2017-03-28T00:52:42.409Z,0
2017-03-28T00:53:31.696Z,0
2017-03-28T00:54:19.697Z,0
2017-03-28T00:55:08.593Z,0
2017-03-28T00:55:57.152Z,0
2017-03-28T00:56:46.001Z,0
2017-03-28T00:57:34.406Z,0
2017-03-28T00:58:22.810Z,0
2017-03-28T00:59:05.348Z,0
2017-03-28T00:59:45.755Z,0
2017-03-28T01:00:26.225Z,0
2017-03-28T01:01:06.589Z,0
2017-03-28T01:01:47.072Z,0
2017-03-28T01:02:27.445Z,0
2017-03-28T01:03:07.948Z,0
2017-03-28T01:03:48.316Z,0
2017-03-28T01:04:28.725Z,0
2017-03-28T01:05:09.167Z,0
2017-03-28T01:05:49.613Z,0
2017-03-28T01:06:30.068Z,0
2017-03-28T01:07:10.460Z,0
2017-03-28T01:07:50.882Z,0
2017-03-28T01:08:31.314Z,0
2017-03-28T01:09:11.737Z,0
2017-03-28T01:09:52.143Z,0
2017-03-28T01:10:32.529Z,0
2017-03-28T01:11:12.926Z,0
2017-03-28T01:11:53.373Z,0
2017-03-28T01:12:33.799Z,0
2017-03-28T01:13:14.243Z,0
2017-03-28T01:13:54.580Z,0
2017-03-28T01:14:35.059Z,0
2017-03-28T01:15:15.426Z,0
2017-03-28T01:15:55.791Z,0
2017-03-28T01:16:36.177Z,0
2017-03-28T01:17:16.630Z,0
2017-03-28T01:17:57.019Z,0
2017-03-28T01:18:37.440Z,0
2017-03-28T01:19:17.850Z,0
2017-03-28T01:19:58.317Z,0
2017-03-28T01:20:38.705Z,0
2017-03-28T01:21:19.119Z,0
2017-03-28T01:21:59.575Z,0
2017-03-28T01:22:39.935Z,0
2017-03-28T01:23:20.336Z,0
2017-03-28T01:24:00.810Z,0
2017-03-28T01:24:41.247Z,0
2017-03-28T01:25:21.596Z,0
2017-03-28T01:26:02.069Z,0
2017-03-28T01:26:42.480Z,0
2017-03-28T01:27:22.887Z,0
2017-03-28T01:28:03.246Z,0
2017-03-28T01:28:43.662Z,0
2017-03-28T01:29:24.032Z,0
2017-03-28T01:30:04.458Z,0
2017-03-28T01:30:44.861Z,0
2017-03-28T01:31:25.250Z,0
2017-03-28T01:32:05.627Z,0
2017-03-28T01:32:46.006Z,0
2017-03-28T01:33:26.421Z,0
2017-03-28T01:34:06.858Z,0
2017-03-28T01:34:47.244Z,0
2017-03-28T01:35:27.663Z,0
2017-03-28T01:36:08.089Z,0
2017-03-28T01:36:48.535Z,0
2017-03-28T01:37:28.918Z,0
2017-03-28T01:38:09.300Z,0
2017-03-28T01:38:49.689Z,0
2017-03-28T01:39:30.088Z,0
2017-03-28T01:40:10.553Z,0
2017-03-28T01:40:50.912Z,0
2017-03-28T01:41:31.332Z,0
2017-03-28T01:42:11.702Z,0
2017-03-28T01:42:52.097Z,0
2017-03-28T01:43:32.558Z,0
2017-03-28T01:44:12.956Z,0
2017-03-28T01:44:53.357Z,0
2017-03-28T01:45:33.729Z,0
2017-03-28T01:46:14.185Z,0
2017-03-28T01:46:54.576Z,0
2017-03-28T01:47:34.970Z,0
2017-03-28T01:48:15.415Z,0
2017-03-28T01:48:55.800Z,0
2017-03-28T01:49:36.180Z,0
2017-03-28T01:50:16.654Z,0
2017-03-28T01:50:57.073Z,0
2017-03-28T01:51:37.427Z,0
2017-03-28T01:52:17.880Z,0
2017-03-28T01:52:58.287Z,0
2017-03-28T01:53:38.696Z,0
2017-03-28T01:54:19.118Z,0
2017-03-28T01:54:59.480Z,0
2017-03-28T01:55:39.939Z,0
2017-03-28T01:56:20.302Z,0
2017-03-28T01:57:00.716Z,0
2017-03-28T01:57:41.163Z,0
2017-03-28T01:58:21.539Z,0
2017-03-28T01:59:01.979Z,0
2017-03-28T01:59:42.353Z,0
2017-03-28T02:00:22.769Z,0
2017-03-28T02:01:03.150Z,0
2017-03-28T02:03:43.435Z,0
2017-03-28T02:04:32.227Z,0
2017-03-28T02:05:20.939Z,0
2017-03-28T02:06:09.225Z,0
2017-03-28T02:06:57.730Z,0
2017-03-28T02:07:46.119Z,0
2017-03-28T02:08:34.498Z,0
2017-03-28T02:09:23.215Z,0
2017-03-28T02:10:11.077Z,0
2017-03-28T02:10:59.637Z,0
2017-03-28T02:11:47.951Z,0
2017-03-28T02:12:33.841Z,0
2017-03-28T02:13:22.205Z,0
2017-03-28T02:14:10.628Z,0
2017-03-28T02:14:59.030Z,0
2017-03-28T02:15:47.306Z,0
2017-03-28T02:16:35.568Z,0
2017-03-28T02:17:19.628Z,0
2017-03-28T02:18:00.015Z,0
2017-03-28T02:18:40.423Z,0
2017-03-28T02:19:20.826Z,0
2017-03-28T02:20:01.312Z,0
2017-03-28T02:20:41.677Z,0
2017-03-28T02:21:22.065Z,0
2017-03-28T02:22:02.459Z,0
2017-03-28T02:22:42.877Z,0
2017-03-28T02:23:23.304Z,0
2017-03-28T02:24:03.713Z,0
2017-03-28T02:24:44.149Z,0
2017-03-28T02:25:24.534Z,0
2017-03-28T02:26:04.945Z,0
2017-03-28T02:26:45.378Z,0
2017-03-28T02:27:25.793Z,0
2017-03-28T02:28:06.175Z,0
2017-03-28T02:28:46.598Z,0
2017-03-28T02:29:27.049Z,0
2017-03-28T02:30:07.419Z,0
2017-03-28T02:30:47.874Z,0
2017-03-28T02:31:28.268Z,0
2017-03-28T02:32:08.666Z,0
2017-03-28T02:32:49.082Z,0
2017-03-28T02:33:29.458Z,0
2017-03-28T02:34:09.858Z,0
2017-03-28T02:34:50.304Z,0
2017-03-28T02:35:31.577Z,0
2017-03-28T02:36:12.422Z,0
2017-03-28T02:36:52.907Z,0
2017-03-28T02:37:33.341Z,0
2017-03-28T02:38:13.805Z,0
2017-03-28T02:38:54.181Z,0
2017-03-28T02:39:34.589Z,0
2017-03-28T02:40:14.997Z,0
2017-03-28T02:40:55.375Z,0
2017-03-28T02:41:35.858Z,0
2017-03-28T02:42:16.288Z,0
2017-03-28T02:42:56.615Z,0
2017-03-28T02:43:37.048Z,0
2017-03-28T02:44:17.428Z,0
2017-03-28T02:44:57.834Z,0
2017-03-28T02:45:38.261Z,0
2017-03-28T02:46:18.656Z,0
2017-03-28T02:46:59.122Z,0
2017-03-28T02:47:39.488Z,0
2017-03-28T02:48:19.880Z,0
2017-03-28T02:49:00.271Z,0
2017-03-28T02:49:40.686Z,0
2017-03-28T02:50:21.099Z,0
2017-03-28T02:51:01.470Z,0
2017-03-28T02:51:41.877Z,0
2017-03-28T02:52:22.275Z,0
2017-03-28T02:53:02.681Z,0
2017-03-28T02:53:43.022Z,0
2017-03-28T02:54:23.524Z,0
2017-03-28T02:55:03.888Z,0
2017-03-28T02:55:44.302Z,0
2017-03-28T02:56:24.712Z,0
2017-03-28T02:57:05.119Z,0
2017-03-28T02:57:45.536Z,0
2017-03-28T02:58:25.869Z,0
2017-03-28T02:59:06.344Z,0
2017-03-28T02:59:46.716Z,0
2017-03-28T03:00:27.119Z,0
2017-03-28T03:01:07.454Z,0
2017-03-28T03:01:47.912Z,0
2017-03-28T03:02:28.294Z,0
2017-03-28T03:03:08.750Z,0
2017-03-28T03:03:49.101Z,0
2017-03-28T03:04:29.484Z,0
2017-03-28T03:05:09.938Z,0
2017-03-28T03:05:50.295Z,0
2017-03-28T03:06:30.721Z,0
2017-03-28T03:07:11.674Z,0
2017-03-28T03:07:52.145Z,0
2017-03-28T03:08:32.602Z,0
2017-03-28T03:09:13.796Z,0
2017-03-28T03:09:54.747Z,0
2017-03-28T03:10:35.175Z,0
2017-03-28T03:11:15.618Z,0
2017-03-28T03:11:56.016Z,0
2017-03-28T03:12:36.426Z,0
2017-03-28T03:13:16.941Z,0
2017-03-28T03:13:57.251Z,0
2017-03-28T03:14:37.636Z,0
2017-03-28T03:15:19.503Z,0
2017-03-28T03:15:59.250Z,0
2017-03-28T03:16:40.408Z,0
2017-03-28T03:17:20.816Z,0
2017-03-28T03:18:01.284Z,0
2017-03-28T03:18:41.794Z,0
2017-03-28T03:19:22.174Z,0
2017-03-28T03:20:02.629Z,0
2017-03-28T03:20:43.014Z,0
2017-03-28T03:21:23.416Z,0
2017-03-28T03:22:03.848Z,0
2017-03-28T03:22:45.064Z,0
2017-03-28T03:23:25.511Z,0
2017-03-28T03:24:05.920Z,0
2017-03-28T03:24:46.415Z,0
2017-03-28T03:25:26.809Z,0
2017-03-28T03:26:07.204Z,0
2017-03-28T03:26:47.574Z,0
2017-03-28T03:27:28.768Z,0
2017-03-28T03:28:09.170Z,0
2017-03-28T03:28:49.640Z,0
2017-03-28T03:29:30.047Z,0
2017-03-28T03:30:10.460Z,0
2017-03-28T03:30:50.857Z,0
2017-03-28T03:31:31.287Z,0
2017-03-28T03:32:13.558Z,0
2017-03-28T03:32:54.322Z,0
2017-03-28T03:33:34.778Z,0
2017-03-28T03:34:15.207Z,0
2017-03-28T03:34:56.351Z,0
2017-03-28T03:35:37.674Z,0
2017-03-28T03:36:18.091Z,0
2017-03-28T03:36:59.869Z,0
2017-03-28T03:37:40.279Z,0
2017-03-28T03:38:24.117Z,0
2017-03-28T03:39:06.271Z,0
2017-03-28T03:39:49.187Z,0
2017-03-28T03:40:30.377Z,0
2017-03-28T03:41:14.690Z,0
2017-03-28T03:41:55.090Z,0
2017-03-28T03:42:35.485Z,0
2017-03-28T03:45:06.109Z,0
2017-03-28T03:45:48.413Z,0
2017-03-28T03:46:28.840Z,0
2017-03-28T03:47:09.218Z,0
2017-03-28T03:47:49.688Z,0
2017-03-28T03:48:30.162Z,0
2017-03-28T03:49:10.566Z,0
2017-03-28T03:49:50.956Z,0
2017-03-28T03:50:31.384Z,0
2017-03-28T03:51:11.751Z,0
2017-03-28T03:51:52.214Z,0
2017-03-28T03:52:32.608Z,0
2017-03-28T03:53:13.051Z,0
2017-03-28T03:53:53.499Z,0
2017-03-28T03:54:35.827Z,0
2017-03-28T03:55:16.324Z,0
2017-03-28T03:55:56.676Z,0
2017-03-28T03:56:37.117Z,0
2017-03-28T03:57:17.554Z,0
2017-03-28T03:57:57.980Z,0
2017-03-28T03:58:38.375Z,0
2017-03-28T03:59:18.739Z,0
2017-03-28T03:59:59.136Z,0
2017-03-28T04:00:39.536Z,0
2017-03-28T04:01:19.983Z,0
2017-03-28T04:02:07.037Z,0
2017-03-28T04:02:47.449Z,0
2017-03-28T04:03:27.838Z,0
2017-03-28T04:04:09.027Z,0
2017-03-28T04:04:49.465Z,0
2017-03-28T04:05:29.849Z,0
2017-03-28T04:06:10.263Z,0
2017-03-28T04:06:50.743Z,0
2017-03-28T04:07:31.099Z,0
2017-03-28T04:08:12.391Z,0
2017-03-28T04:08:52.808Z,0
2017-03-28T04:09:33.264Z,0
2017-03-28T04:10:13.652Z,0
2017-03-28T04:10:54.025Z,0
2017-03-28T04:11:34.434Z,0
2017-03-28T04:12:14.840Z,0
2017-03-28T04:12:55.255Z,0
2017-03-28T04:13:36.441Z,0
2017-03-28T04:14:16.815Z,0
2017-03-28T04:14:57.196Z,0
2017-03-28T04:15:37.687Z,0
2017-03-28T04:16:18.042Z,0
2017-03-28T04:16:58.500Z,0
2017-03-28T04:17:38.929Z,0
2017-03-28T04:18:19.295Z,0
2017-03-28T04:18:59.743Z,0
2017-03-28T04:19:40.138Z,0
2017-03-28T04:20:21.179Z,0
2017-03-28T04:21:03.268Z,0
2017-03-28T04:21:43.870Z,0
2017-03-28T04:22:26.373Z,0
2017-03-28T04:23:08.800Z,0
2017-03-28T04:23:50.067Z,0
2017-03-28T04:24:30.452Z,0
2017-03-28T04:25:10.844Z,0
2017-03-28T04:25:51.269Z,0
2017-03-28T04:26:31.631Z,0
2017-03-28T04:27:12.017Z,0
2017-03-28T04:27:52.873Z,0
2017-03-28T04:28:32.863Z,0
2017-03-28T04:29:13.315Z,0
2017-03-28T04:29:54.441Z,0
2017-03-28T04:30:35.462Z,0
2017-03-28T04:31:15.878Z,0
2017-03-28T04:31:56.350Z,0
2017-03-28T04:32:36.813Z,0
2017-03-28T04:33:17.249Z,0
2017-03-28T04:33:58.562Z,0
2017-03-28T04:34:38.956Z,0
2017-03-28T04:35:19.409Z,0
2017-03-28T04:35:59.813Z,0
2017-03-28T04:36:40.216Z,0
2017-03-28T04:37:20.647Z,0
2017-03-28T04:38:01.635Z,0
2017-03-28T04:38:42.085Z,4
2017-03-28T04:39:23.420Z,4
2017-03-28T04:40:03.902Z,0
2017-03-28T04:40:47.890Z,0
2017-03-28T04:41:30.082Z,4
2017-03-28T04:42:12.968Z,4
2017-03-28T04:42:53.345Z,4
2017-03-28T04:43:37.359Z,4
2017-03-28T04:44:17.812Z,4
2017-03-28T04:44:58.227Z,4
2017-03-28T04:45:38.599Z,4
2017-03-28T04:46:20.047Z,8
2017-03-28T04:47:00.452Z,8
2017-03-28T04:47:40.890Z,8
2017-03-28T04:48:22.236Z,8
2017-03-28T04:49:02.675Z,12
2017-03-28T04:49:43.108Z,12
2017-03-28T04:50:24.179Z,16
2017-03-28T04:51:05.406Z,20
2017-03-28T04:51:45.844Z,20
2017-03-28T04:52:26.306Z,24
2017-03-28T04:53:06.794Z,24
2017-03-28T04:53:47.205Z,28
2017-03-28T04:54:27.646Z,28
2017-03-28T04:55:09.025Z,32
2017-03-28T04:55:51.955Z,40
2017-03-28T04:56:32.312Z,44
2017-03-28T04:57:12.740Z,48
2017-03-28T04:57:53.150Z,56
2017-03-28T04:58:33.561Z,60
2017-03-28T04:59:14.016Z,64
2017-03-28T04:59:54.401Z,72
2017-03-28T05:00:34.780Z,80
2017-03-28T05:01:15.255Z,84
2017-03-28T05:01:55.631Z,92
2017-03-28T05:02:36.141Z,100
2017-03-28T05:03:19.592Z,112
2017-03-28T05:03:59.999Z,120
2017-03-28T05:04:40.431Z,132
2017-03-28T05:05:22.371Z,140
2017-03-28T05:06:02.798Z,152
2017-03-28T05:06:43.247Z,164
2017-03-28T05:07:23.677Z,176
2017-03-28T05:08:04.133Z,188
2017-03-28T05:08:46.836Z,200
2017-03-28T05:09:27.298Z,216
2017-03-28T05:10:08.463Z,232
2017-03-28T05:10:48.964Z,248
2017-03-28T05:11:29.287Z,264
2017-03-28T05:12:09.702Z,284
2017-03-28T05:12:50.191Z,296
2017-03-28T05:13:30.608Z,316
2017-03-28T05:14:12.836Z,336
2017-03-28T05:14:53.301Z,352
2017-03-28T05:15:33.699Z,372
2017-03-28T05:16:14.188Z,392
2017-03-28T05:16:54.577Z,412
2017-03-28T05:17:35.024Z,432
2017-03-28T05:18:15.418Z,456
2017-03-28T05:18:55.883Z,476
2017-03-28T05:19:36.308Z,496
2017-03-28T05:20:17.712Z,520
2017-03-28T05:20:59.052Z,540
2017-03-28T05:21:39.557Z,564
2017-03-28T05:22:19.969Z,588
2017-03-28T05:23:00.352Z,612
2017-03-28T05:23:40.775Z,640
2017-03-28T05:24:21.229Z,660
2017-03-28T05:25:01.669Z,684
2017-03-28T05:25:42.122Z,708
2017-03-28T05:26:23.407Z,732
2017-03-28T05:27:04.664Z,760
2017-03-28T05:27:45.115Z,784
2017-03-28T05:28:25.558Z,804
2017-03-28T05:29:05.962Z,832
2017-03-28T05:29:46.414Z,856
2017-03-28T05:30:26.802Z,884
2017-03-28T05:31:07.245Z,912
2017-03-28T05:31:47.672Z,936
2017-03-28T05:32:28.632Z,968
2017-03-28T05:33:09.015Z,992
2017-03-28T05:33:49.419Z,1016
2017-03-28T05:34:29.839Z,1044
2017-03-28T05:35:10.238Z,1072
2017-03-28T05:35:50.645Z,1096
2017-03-28T05:36:31.068Z,1120
2017-03-28T05:37:11.505Z,1144
2017-03-28T05:37:51.897Z,1168
2017-03-28T05:38:32.301Z,1196
2017-03-28T05:39:12.746Z,1224
2017-03-28T05:39:53.188Z,1248
2017-03-28T05:40:33.564Z,1276
2017-03-28T05:41:13.954Z,1304
2017-03-28T05:41:54.392Z,1332
2017-03-28T05:42:34.782Z,1356
2017-03-28T05:43:15.184Z,1380
2017-03-28T05:43:55.582Z,1408
2017-03-28T05:44:35.985Z,1436
2017-03-28T05:45:16.364Z,1460
2017-03-28T05:45:56.835Z,1488
2017-03-28T05:46:37.234Z,1512
2017-03-28T05:47:17.703Z,1536
2017-03-28T05:47:58.947Z,1564
2017-03-28T05:48:39.341Z,1596
2017-03-28T05:49:19.728Z,1624
2017-03-28T05:50:00.697Z,1648
2017-03-28T05:50:41.090Z,1684
2017-03-28T05:51:21.546Z,1720
2017-03-28T05:52:02.863Z,1772
2017-03-28T05:52:43.265Z,1816
2017-03-28T05:53:23.748Z,1848
2017-03-28T05:54:04.154Z,1868
2017-03-28T05:54:44.554Z,1880
2017-03-28T05:55:25.010Z,1900
2017-03-28T05:56:05.435Z,1912
2017-03-28T05:56:45.851Z,1928
2017-03-28T05:57:26.229Z,1944
2017-03-28T05:58:06.611Z,1960
2017-03-28T05:58:47.004Z,1980
2017-03-28T05:59:27.414Z,2000
2017-03-28T06:00:07.827Z,2024
2017-03-28T06:00:48.283Z,2040
2017-03-28T06:01:28.724Z,2060
2017-03-28T06:02:09.150Z,2084
2017-03-28T06:02:49.535Z,2112
2017-03-28T06:03:30.423Z,2140
2017-03-28T06:04:11.571Z,2172
2017-03-28T06:04:51.974Z,2220
2017-03-28T06:05:32.365Z,2292
2017-03-28T06:06:12.834Z,2404
2017-03-28T06:06:53.248Z,2556
2017-03-28T06:07:33.687Z,2740
2017-03-28T06:08:14.054Z,2932
2017-03-28T06:08:54.955Z,3132
2017-03-28T06:09:35.346Z,3332
2017-03-28T06:10:16.635Z,3484
2017-03-28T06:10:57.063Z,3600
2017-03-28T06:11:38.354Z,3692
2017-03-28T06:12:20.373Z,3756
2017-03-28T06:13:01.455Z,3800
2017-03-28T06:13:41.851Z,3852
2017-03-28T06:14:22.352Z,3896
2017-03-28T06:15:02.724Z,3948
2017-03-28T06:15:43.156Z,3992
2017-03-28T06:16:23.626Z,4044
2017-03-28T06:17:03.954Z,4088
2017-03-28T06:17:44.394Z,4136
2017-03-28T06:18:24.776Z,4180
2017-03-28T06:19:05.242Z,4216
2017-03-28T06:19:46.224Z,4272
2017-03-28T06:20:26.640Z,4312
2017-03-28T06:21:08.887Z,4348
2017-03-28T06:21:49.307Z,4396
2017-03-28T06:22:30.516Z,4440
2017-03-28T06:23:10.905Z,4480
2017-03-28T06:23:51.379Z,4524
2017-03-28T06:24:31.859Z,4576
2017-03-28T06:25:12.242Z,4628
2017-03-28T06:25:52.690Z,4664
2017-03-28T06:26:34.018Z,4704
2017-03-28T06:27:14.578Z,4752
2017-03-28T06:27:54.924Z,4804
2017-03-28T06:28:36.267Z,4864
2017-03-28T06:29:16.643Z,4896
2017-03-28T06:29:57.089Z,4940
2017-03-28T06:30:37.505Z,4992
2017-03-28T06:31:17.959Z,5040
2017-03-28T06:31:58.348Z,5084
2017-03-28T06:32:39.627Z,5124
2017-03-28T06:33:20.013Z,5176
2017-03-28T06:34:00.435Z,5228
2017-03-28T06:34:40.859Z,5280
2017-03-28T06:35:21.428Z,5328
2017-03-28T06:36:01.822Z,5368
2017-03-28T06:36:42.242Z,5412
2017-03-28T06:37:22.629Z,5460
2017-03-28T06:38:03.015Z,5496
2017-03-28T06:38:43.451Z,5540
2017-03-28T06:39:23.873Z,5580
2017-03-28T06:40:04.279Z,5620
2017-03-28T06:40:45.556Z,5660
2017-03-28T06:41:25.940Z,5692
2017-03-28T06:42:07.076Z,5724
2017-03-28T06:42:47.455Z,5760
2017-03-28T06:43:28.702Z,5788
2017-03-28T06:44:10.167Z,5820
2017-03-28T06:44:51.115Z,5852
2017-03-28T06:45:31.568Z,5880
2017-03-28T06:46:11.953Z,5908
2017-03-28T06:46:52.376Z,5936
2017-03-28T06:47:32.821Z,5968
2017-03-28T06:48:13.187Z,6008
2017-03-28T06:48:53.643Z,6032
2017-03-28T06:49:34.027Z,6064
2017-03-28T06:50:14.436Z,6084
2017-03-28T06:50:54.930Z,6108
2017-03-28T06:51:36.132Z,6136
2017-03-28T06:52:17.203Z,6176
2017-03-28T06:52:57.640Z,6208
2017-03-28T06:53:38.032Z,6232
2017-03-28T06:54:19.297Z,6252
2017-03-28T06:55:02.468Z,6280
2017-03-28T06:55:43.590Z,6328
2017-03-28T06:56:24.045Z,6364
2017-03-28T06:57:04.512Z,6400
2017-03-28T06:57:45.018Z,6444
2017-03-28T06:58:25.520Z,6472
2017-03-28T06:59:07.635Z,6508
2017-03-28T06:59:48.077Z,6544
2017-03-28T07:00:28.454Z,6580
2017-03-28T07:01:09.694Z,6616
2017-03-28T07:01:50.194Z,6664
2017-03-28T07:02:31.400Z,6704
2017-03-28T07:03:12.466Z,6748
2017-03-28T07:03:53.623Z,6776
2017-03-28T07:04:34.880Z,6812
2017-03-28T07:05:15.346Z,6844
2017-03-28T07:05:56.555Z,6892
2017-03-28T07:06:36.944Z,6936
2017-03-28T07:07:17.987Z,6980
2017-03-28T07:07:58.358Z,7016
2017-03-28T07:08:38.776Z,7056
2017-03-28T07:09:19.191Z,7092
2017-03-28T07:10:01.043Z,7136
2017-03-28T07:10:42.994Z,7172
2017-03-28T07:11:24.222Z,7212
2017-03-28T07:12:06.475Z,7260
2017-03-28T07:12:46.853Z,7288
2017-03-28T07:13:27.266Z,7316
2017-03-28T07:14:07.635Z,7356
2017-03-28T07:14:48.703Z,7396
2017-03-28T07:15:29.767Z,7424
2017-03-28T07:16:11.047Z,7452
2017-03-28T07:16:51.484Z,7492
2017-03-28T07:17:33.366Z,7532
2017-03-28T07:18:13.798Z,7568
2017-03-28T07:18:54.214Z,7604
2017-03-28T07:19:36.120Z,7636
2017-03-28T07:20:16.580Z,7672
2017-03-28T07:21:00.657Z,7704
2017-03-28T07:21:41.978Z,7736
2017-03-28T07:22:23.862Z,7764
2017-03-28T07:23:05.061Z,7796
2017-03-28T07:23:45.475Z,7828
2017-03-28T07:26:00.713Z,7924
2017-03-28T07:26:42.327Z,7952
2017-03-28T07:27:24.020Z,7992
2017-03-28T07:28:04.395Z,8028
2017-03-28T07:28:47.041Z,8068
2017-03-28T07:29:28.111Z,8104
2017-03-28T07:30:08.545Z,7968
2017-03-28T07:30:50.533Z,8176
2017-03-28T07:31:30.963Z,8216
2017-03-28T07:32:12.531Z,8240
2017-03-28T07:32:52.839Z,8276
2017-03-28T07:33:33.263Z,8316
2017-03-28T07:34:13.678Z,8332
2017-03-28T07:34:54.154Z,8360
2017-03-28T07:35:34.550Z,8384
2017-03-28T07:36:14.977Z,8424
2017-03-28T07:38:45.721Z,8572
2017-03-28T07:39:25.201Z,8596
2017-03-28T07:40:06.382Z,8632
2017-03-28T07:40:48.218Z,8676
2017-03-28T07:41:28.656Z,8712
2017-03-28T07:42:09.652Z,8740
2017-03-28T07:42:50.735Z,8780
2017-03-28T07:43:31.222Z,8804
2017-03-28T07:44:11.690Z,8820
2017-03-28T07:44:52.087Z,8856
2017-03-28T07:45:32.532Z,8884
2017-03-28T07:46:12.864Z,8928
2017-03-28T07:46:53.827Z,8972
2017-03-28T07:47:35.960Z,9004
2017-03-28T07:48:19.229Z,9040
2017-03-28T07:48:59.709Z,9084
2017-03-28T07:49:40.131Z,9120
2017-03-28T07:50:20.569Z,9168
2017-03-28T07:51:01.062Z,9212
2017-03-28T07:53:14.835Z,9348
2017-03-28T07:53:56.342Z,9384
2017-03-28T07:56:12.114Z,9588
2017-03-28T07:56:54.245Z,9804
2017-03-28T07:57:35.208Z,10168
2017-03-28T07:58:17.391Z,10668
2017-03-28T07:58:57.851Z,11208
2017-03-28T07:59:38.880Z,11872
2017-03-28T08:00:19.290Z,12764
2017-03-28T08:00:59.717Z,14096
2017-03-28T08:01:42.510Z,16384
2017-03-28T08:07:50.707Z,71776
2017-03-28T08:14:44.275Z,75776
2017-03-28T08:15:24.477Z,75584
2017-03-28T08:16:04.887Z,72288
2017-03-28T08:16:47.059Z,73248
2017-03-28T08:19:00.386Z,73568
2017-03-28T08:19:40.815Z,73632
2017-03-28T08:20:21.791Z,73792
2017-03-28T08:21:02.218Z,75232
2017-03-28T08:23:31.997Z,85184
2017-03-28T08:25:44.548Z,78080
2017-03-28T08:28:12.627Z,80960
2017-03-28T08:28:54.537Z,83296
2017-03-28T08:29:35.451Z,82016
2017-03-28T08:30:16.545Z,79936
2017-03-28T08:32:30.955Z,84896
2017-03-28T08:37:49.276Z,75776
2017-03-28T08:38:29.629Z,74976
2017-03-28T08:39:10.068Z,78880
2017-03-28T08:44:59.364Z,91744
2017-03-28T08:47:29.286Z,84928
2017-03-28T08:48:11.463Z,86240
2017-03-28T08:53:32.352Z,80640
2017-03-28T08:57:19.271Z,87072
2017-03-28T08:58:01.314Z,84960
2017-03-28T08:58:41.721Z,82272
2017-03-28T09:04:00.783Z,87968
2017-03-28T09:06:14.426Z,86336
2017-03-28T09:08:31.771Z,93408
2017-03-28T09:18:42.454Z,98432
2017-03-28T09:33:38.287Z,98368
2017-03-28T09:35:53.159Z,95456
2017-03-28T09:36:33.552Z,94752
2017-03-28T09:37:15.497Z,92288
2017-03-28T09:37:58.906Z,94816
2017-03-28T09:38:40.322Z,93664
2017-03-28T09:39:22.493Z,92960
2017-03-28T09:40:02.937Z,94528
2017-03-28T09:42:31.967Z,94176
2017-03-28T09:43:12.404Z,95744
2017-03-28T09:43:53.465Z,99904
2017-03-28T09:44:34.488Z,105216
2017-03-28T09:45:15.890Z,106528
2017-03-28T09:45:56.337Z,102016
2017-03-28T09:46:37.665Z,92384
2017-03-28T09:47:18.149Z,95456
2017-03-28T09:47:59.905Z,102432
2017-03-28T09:48:40.308Z,95872
2017-03-28T09:49:20.759Z,87584
2017-03-28T09:50:01.839Z,84096
2017-03-28T09:50:43.006Z,91904
2017-03-28T09:51:23.452Z,101888
2017-03-28T09:52:03.858Z,123456
2017-03-28T09:52:44.801Z,132672
2017-03-28T09:53:25.294Z,130944
2017-03-28T09:54:06.640Z,132864
2017-03-28T09:54:47.061Z,125248
2017-03-28T09:55:28.510Z,113888
2017-03-28T09:56:08.938Z,104064
2017-03-28T09:58:21.855Z,92928
2017-03-28T09:59:02.215Z,95136
2017-03-28T09:59:44.148Z,93056
2017-03-28T10:00:24.568Z,91744
2017-03-28T10:01:06.000Z,84320
2017-03-28T10:01:46.456Z,79392
2017-03-28T10:02:29.783Z,86336
2017-03-28T10:03:10.186Z,95808
2017-03-28T10:03:50.619Z,101888
2017-03-28T10:04:31.053Z,104000
2017-03-28T10:05:14.580Z,102944
2017-03-28T10:05:54.914Z,97024
2017-03-28T10:06:35.337Z,99616
2017-03-28T10:07:16.380Z,102816
2017-03-28T10:07:58.133Z,101728
2017-03-28T10:08:40.137Z,99136
2017-03-28T10:09:22.234Z,101728
2017-03-28T10:10:02.627Z,105568
2017-03-28T10:10:43.082Z,105632
2017-03-28T10:11:24.299Z,107232
2017-03-28T10:12:04.741Z,108064
2017-03-28T10:12:46.009Z,105536
2017-03-28T10:13:26.387Z,101760
2017-03-28T10:14:06.805Z,105696
2017-03-28T10:14:47.247Z,107552
2017-03-28T10:15:27.721Z,108224
2017-03-28T10:17:47.162Z,108032
2017-03-28T10:18:28.538Z,110112
2017-03-28T10:19:08.997Z,106080
2017-03-28T10:19:49.373Z,103808
2017-03-28T10:20:29.828Z,103808
2017-03-28T10:21:10.239Z,104768
2017-03-28T10:21:50.667Z,107776
2017-03-28T10:22:31.128Z,107648
2017-03-28T10:23:11.571Z,107936
2017-03-28T10:23:51.990Z,106624
2017-03-28T10:24:32.405Z,103104
2017-03-28T10:25:12.875Z,101568
2017-03-28T10:25:53.897Z,104288
2017-03-28T10:26:34.360Z,106688
2017-03-28T10:27:14.784Z,107296
2017-03-28T10:27:55.203Z,108160
2017-03-28T10:28:35.678Z,107712
2017-03-28T10:29:16.891Z,107008
2017-03-28T10:29:58.235Z,104224
2017-03-28T10:30:38.643Z,100448
2017-03-28T10:31:19.853Z,101440
2017-03-28T10:32:00.208Z,106688
2017-03-28T10:32:40.669Z,107392
2017-03-28T10:33:21.071Z,105152
2017-03-28T10:34:02.136Z,101696
2017-03-28T10:34:43.172Z,102688
2017-03-28T10:35:23.563Z,103264
2017-03-28T10:36:04.712Z,106144
2017-03-28T10:36:45.141Z,104800
2017-03-28T10:37:25.589Z,101024
2017-03-28T10:38:06.655Z,105184
2017-03-28T10:38:47.944Z,108064
2017-03-28T10:39:29.131Z,107328
2017-03-28T10:40:09.596Z,105248
2017-03-28T10:42:27.683Z,104832
2017-03-28T10:43:10.381Z,106176
2017-03-28T10:43:52.641Z,107072
2017-03-28T10:44:33.970Z,106464
2017-03-28T10:45:14.491Z,103360
2017-03-28T10:45:55.654Z,102528
2017-03-28T10:46:36.114Z,104736
2017-03-28T10:49:09.068Z,101408
2017-03-28T10:49:50.251Z,107136
2017-03-28T10:50:30.675Z,107552
2017-03-28T10:51:11.135Z,107104
2017-03-28T10:51:51.568Z,107616
2017-03-28T10:52:32.905Z,108800
2017-03-28T10:55:01.167Z,110048
2017-03-28T10:55:42.050Z,111168
2017-03-28T10:56:22.528Z,110272
2017-03-28T10:57:03.688Z,108352
2017-03-28T10:57:44.151Z,107968
2017-03-28T10:58:25.434Z,106816
2017-03-28T10:59:05.876Z,107296
2017-03-28T10:59:46.281Z,104672
2017-03-28T11:00:26.731Z,103008
2017-03-28T11:01:07.639Z,104160
2017-03-28T11:03:08.161Z,105536
2017-03-28T11:05:21.339Z,106272
2017-03-28T11:06:02.426Z,105440
2017-03-28T11:06:42.868Z,104128
2017-03-28T11:07:23.307Z,101568
2017-03-28T11:08:03.803Z,102432
2017-03-28T11:08:44.238Z,102016
2017-03-28T11:10:57.020Z,98400